Vingaren — OZ2131 — position and weather

sailwx.info

Track history (hours):
 
Tides and Currents Weather Stations Pressure Air Temp Water Temp Dewpoint Dewpoint Depression Visibility Wind Speed Wind Dir Waves Ship Positions

Vingaren

Last reported at 2016-Sep-21 09:33 UTC. Time now 2016-Sep-29 11:55 UTC.
Position N 55°11' E 014°05'.
Warning: this ship's position is 8 days out of date.

Length 89 m; draft 3.9 m.

Type: Cargo ship. MMSI: 231844000.

Date/timePositionNaut miles runAvg speedWind from/ knotsBaromVisibWave heightAir tempDewpointWater temp
2016-Sep-21 09:33N 55°11' E 014°05'10 9.6
2016-Sep-21 08:33N 55°11' E 013°48'29 9.4
2016-Sep-21 05:30N 55°14' E 012°58'14 7.4
2016-Sep-21 03:33N 55°24' E 012°40'10 9.7
2016-Sep-21 02:33N 55°34' E 012°42'80 8.9
2016-Sep-20 17:32N 56°53' E 012°29'0 0.0
2016-Sep-20 14:32N 56°53' E 012°29'0 0.0
2016-Sep-20 13:32N 56°53' E 012°29'0 0.0
2016-Sep-20 10:32N 56°53' E 012°29'0 0.0
2016-Sep-20 08:32N 56°53' E 012°29'0 0.0
2016-Sep-20 07:32N 56°53' E 012°29'0 0.0
2016-Sep-20 06:32N 56°53' E 012°29'0 0.0
2016-Sep-20 02:32N 56°53' E 012°29'0 0.0
2016-Sep-19 23:32N 56°53' E 012°29'0 0.0
2016-Sep-19 19:32N 56°53' E 012°29'0 0.0
2016-Sep-19 18:32N 56°53' E 012°29'0 0.0
2016-Sep-19 16:26N 56°53' E 012°29'0 0.0
2016-Sep-19 14:32N 56°53' E 012°29'0 0.0
2016-Sep-19 13:32N 56°53' E 012°29'0 0.0
2016-Sep-19 12:32N 56°53' E 012°29'0 0.0
2016-Sep-19 11:31N 56°53' E 012°29'0 0.0
2016-Sep-19 09:31N 56°53' E 012°29'0 0.0
2016-Sep-19 07:31N 56°53' E 012°29'0 0.0
2016-Sep-19 06:31N 56°53' E 012°29'0 0.0
2016-Sep-19 03:19N 56°53' E 012°29'0 0.0
2016-Sep-19 02:25N 56°53' E 012°29'0 0.0
2016-Sep-19 00:31N 56°53' E 012°29'0 0.0
2016-Sep-18 19:31N 56°53' E 012°29'0 0.0
2016-Sep-18 15:31N 56°53' E 012°29'0 0.0
2016-Sep-18 14:31N 56°53' E 012°29'0 0.0
2016-Sep-18 10:31N 56°53' E 012°29'0 0.0
2016-Sep-18 09:25N 56°53' E 012°29'0 0.0
2016-Sep-18 02:30N 56°53' E 012°29'0 0.0
2016-Sep-18 01:30N 56°53' E 012°29'0 0.0
2016-Sep-18 00:30N 56°53' E 012°29'0 0.0
2016-Sep-17 22:30N 56°53' E 012°29'0 0.0
2016-Sep-17 21:30N 56°53' E 012°29'0 0.0
2016-Sep-17 20:30N 56°53' E 012°29'0 0.0
2016-Sep-17 19:12N 56°53' E 012°29'0 0.0
2016-Sep-17 13:32N 56°53' E 012°29'5 5.4
2016-Sep-17 12:34N 56°49' E 012°25'20 9.7
2016-Sep-17 10:33N 56°29' E 012°24'1210.2
2016-Sep-17 09:20N 56°17' E 012°25'8 9.7
2016-Sep-17 08:33N 56°10' E 012°30'1110.6
2016-Sep-17 07:34N 56°01' E 012°41'19 9.7
2016-Sep-17 05:33N 55°42' E 012°41'1010.1
2016-Sep-17 04:33N 55°32' E 012°43'30 7.4
2016-Sep-17 00:33N 55°15' E 013°27'64 9.2
2016-Sep-16 17:33N 55°27' E 015°18'78 9.7
2016-Sep-16 09:29N 55°30' E 017°37'19 9.9
2016-Sep-16 07:31N 55°33' E 018°11'48 9.7
2016-Sep-16 02:33N 55°39' E 019°35'22 9.6
2016-Sep-16 00:17N 55°41' E 020°14'20 9.7
2016-Sep-15 22:10N 55°44' E 020°50'9 9.4
2016-Sep-15 21:15N 55°44' E 021°05'30 1.0
2016-Sep-14 13:33N 56°04' E 020°25'1010.1
2016-Sep-14 12:32N 56°14' E 020°20'2010.1
2016-Sep-14 10:32N 56°34' E 020°10'1010.1
2016-Sep-14 09:33N 56°43' E 020°05'1010.0
2016-Sep-14 08:33N 56°53' E 020°01'1210.1
2016-Sep-14 07:24N 57°04' E 019°55'910.2
2016-Sep-14 06:33N 57°13' E 019°51'93 9.2
2016-Sep-13 20:31N 58°26' E 018°05'2010.2
2016-Sep-13 18:33N 58°36' E 017°32'10 9.9
2016-Sep-13 17:33N 58°37' E 017°13'10 9.9
2016-Sep-13 16:33N 58°36' E 016°54'21 4.3
2016-Sep-13 11:31N 58°36' E 016°13'0 0.0
2016-Sep-13 09:31N 58°36' E 016°13'0 0.0
2016-Sep-13 07:34N 58°36' E 016°13'0 0.0
2016-Sep-13 06:33N 58°36' E 016°13'0 0.0
2016-Sep-13 04:33N 58°36' E 016°13'0 0.0
2016-Sep-13 02:33N 58°36' E 016°13'0 0.0
2016-Sep-12 23:33N 58°36' E 016°13'0 0.0
2016-Sep-12 21:33N 58°36' E 016°13'0 0.0
2016-Sep-12 19:33N 58°36' E 016°13'0 0.0
2016-Sep-12 17:33N 58°36' E 016°13'0 0.0
2016-Sep-12 14:33N 58°36' E 016°13'0 0.0
2016-Sep-12 13:33N 58°36' E 016°13'0 0.0
2016-Sep-12 12:33N 58°36' E 016°13'0 0.0
2016-Sep-12 11:30N 58°36' E 016°13'0 0.0
2016-Sep-12 10:33N 58°36' E 016°13'0 0.0
2016-Sep-12 07:33N 58°36' E 016°13'0 0.0
2016-Sep-12 06:33N 58°36' E 016°13'0 0.0
2016-Sep-12 03:33N 58°36' E 016°13'0 0.0
2016-Sep-12 01:33N 58°36' E 016°13'0 0.0
2016-Sep-11 23:33N 58°36' E 016°13'0 0.0
2016-Sep-11 22:33N 58°36' E 016°13'0 0.0
2016-Sep-11 21:32N 58°36' E 016°13'0 0.0
2016-Sep-11 20:32N 58°36' E 016°13'0 0.0
2016-Sep-11 19:32N 58°36' E 016°13'0 0.0
2016-Sep-11 18:32N 58°36' E 016°13'0 0.0
2016-Sep-11 17:32N 58°36' E 016°13'0 0.0
2016-Sep-11 16:32N 58°36' E 016°13'0 0.0
2016-Sep-11 15:32N 58°36' E 016°13'0 0.0
2016-Sep-11 14:32N 58°36' E 016°13'0 0.1
2016-Sep-11 13:34N 58°36' E 016°13'5 5.4
2016-Sep-11 12:34N 58°39' E 016°22'9 8.6
2016-Sep-11 11:34N 58°38' E 016°38'9 9.0
2016-Sep-11 10:33N 58°36' E 016°55'  
Track history (hours):
 
Tides and Currents Weather Stations Pressure Air Temp Water Temp Dewpoint Dewpoint Depression Visibility Wind Speed Wind Dir Waves Ship Positions

Vingaren

Last reported at 2016-Sep-21 09:33 UTC. Time now 2016-Sep-29 11:55 UTC.
Position N 55°11' E 014°05'.
Warning: this ship's position is 8 days out of date.

Length 89 m; draft 3.9 m.

Type: Cargo ship. MMSI: 231844000.

Date/timePositionNaut miles runAvg speedWind from/ knotsBaromVisibWave heightAir tempDewpointWater temp
2016-Sep-21 09:33N 55°11' E 014°05'10 9.6
2016-Sep-21 08:33N 55°11' E 013°48'29 9.4
2016-Sep-21 05:30N 55°14' E 012°58'14 7.4
2016-Sep-21 03:33N 55°24' E 012°40'10 9.7
2016-Sep-21 02:33N 55°34' E 012°42'80 8.9
2016-Sep-20 17:32N 56°53' E 012°29'0 0.0
2016-Sep-20 14:32N 56°53' E 012°29'0 0.0
2016-Sep-20 13:32N 56°53' E 012°29'0 0.0
2016-Sep-20 10:32N 56°53' E 012°29'0 0.0
2016-Sep-20 08:32N 56°53' E 012°29'0 0.0
2016-Sep-20 07:32N 56°53' E 012°29'0 0.0
2016-Sep-20 06:32N 56°53' E 012°29'0 0.0
2016-Sep-20 02:32N 56°53' E 012°29'0 0.0
2016-Sep-19 23:32N 56°53' E 012°29'0 0.0
2016-Sep-19 19:32N 56°53' E 012°29'0 0.0
2016-Sep-19 18:32N 56°53' E 012°29'0 0.0
2016-Sep-19 16:26N 56°53' E 012°29'0 0.0
2016-Sep-19 14:32N 56°53' E 012°29'0 0.0
2016-Sep-19 13:32N 56°53' E 012°29'0 0.0
2016-Sep-19 12:32N 56°53' E 012°29'0 0.0
2016-Sep-19 11:31N 56°53' E 012°29'0 0.0
2016-Sep-19 09:31N 56°53' E 012°29'0 0.0
2016-Sep-19 07:31N 56°53' E 012°29'0 0.0
2016-Sep-19 06:31N 56°53' E 012°29'0 0.0
2016-Sep-19 03:19N 56°53' E 012°29'0 0.0
2016-Sep-19 02:25N 56°53' E 012°29'0 0.0
2016-Sep-19 00:31N 56°53' E 012°29'0 0.0
2016-Sep-18 19:31N 56°53' E 012°29'0 0.0
2016-Sep-18 15:31N 56°53' E 012°29'0 0.0
2016-Sep-18 14:31N 56°53' E 012°29'0 0.0
2016-Sep-18 10:31N 56°53' E 012°29'0 0.0
2016-Sep-18 09:25N 56°53' E 012°29'0 0.0
2016-Sep-18 02:30N 56°53' E 012°29'0 0.0
2016-Sep-18 01:30N 56°53' E 012°29'0 0.0
2016-Sep-18 00:30N 56°53' E 012°29'0 0.0
2016-Sep-17 22:30N 56°53' E 012°29'0 0.0
2016-Sep-17 21:30N 56°53' E 012°29'0 0.0
2016-Sep-17 20:30N 56°53' E 012°29'0 0.0
2016-Sep-17 19:12N 56°53' E 012°29'0 0.0
2016-Sep-17 13:32N 56°53' E 012°29'5 5.4
2016-Sep-17 12:34N 56°49' E 012°25'20 9.7
2016-Sep-17 10:33N 56°29' E 012°24'1210.2
2016-Sep-17 09:20N 56°17' E 012°25'8 9.7
2016-Sep-17 08:33N 56°10' E 012°30'1110.6
2016-Sep-17 07:34N 56°01' E 012°41'19 9.7
2016-Sep-17 05:33N 55°42' E 012°41'1010.1
2016-Sep-17 04:33N 55°32' E 012°43'30 7.4
2016-Sep-17 00:33N 55°15' E 013°27'64 9.2
2016-Sep-16 17:33N 55°27' E 015°18'78 9.7
2016-Sep-16 09:29N 55°30' E 017°37'19 9.9
2016-Sep-16 07:31N 55°33' E 018°11'48 9.7
2016-Sep-16 02:33N 55°39' E 019°35'22 9.6
2016-Sep-16 00:17N 55°41' E 020°14'20 9.7
2016-Sep-15 22:10N 55°44' E 020°50'9 9.4
2016-Sep-15 21:15N 55°44' E 021°05'30 1.0
2016-Sep-14 13:33N 56°04' E 020°25'1010.1
2016-Sep-14 12:32N 56°14' E 020°20'2010.1
2016-Sep-14 10:32N 56°34' E 020°10'1010.1
2016-Sep-14 09:33N 56°43' E 020°05'1010.0
2016-Sep-14 08:33N 56°53' E 020°01'1210.1
2016-Sep-14 07:24N 57°04' E 019°55'910.2
2016-Sep-14 06:33N 57°13' E 019°51'93 9.2
2016-Sep-13 20:31N 58°26' E 018°05'2010.2
2016-Sep-13 18:33N 58°36' E 017°32'10 9.9
2016-Sep-13 17:33N 58°37' E 017°13'10 9.9
2016-Sep-13 16:33N 58°36' E 016°54'21 4.3
2016-Sep-13 11:31N 58°36' E 016°13'0 0.0
2016-Sep-13 09:31N 58°36' E 016°13'0 0.0
2016-Sep-13 07:34N 58°36' E 016°13'0 0.0
2016-Sep-13 06:33N 58°36' E 016°13'0 0.0
2016-Sep-13 04:33N 58°36' E 016°13'0 0.0
2016-Sep-13 02:33N 58°36' E 016°13'0 0.0
2016-Sep-12 23:33N 58°36' E 016°13'0 0.0
2016-Sep-12 21:33N 58°36' E 016°13'0 0.0
2016-Sep-12 19:33N 58°36' E 016°13'0 0.0
2016-Sep-12 17:33N 58°36' E 016°13'0 0.0
2016-Sep-12 14:33N 58°36' E 016°13'0 0.0
2016-Sep-12 13:33N 58°36' E 016°13'0 0.0
2016-Sep-12 12:33N 58°36' E 016°13'0 0.0
2016-Sep-12 11:30N 58°36' E 016°13'0 0.0
2016-Sep-12 10:33N 58°36' E 016°13'0 0.0
2016-Sep-12 07:33N 58°36' E 016°13'0 0.0
2016-Sep-12 06:33N 58°36' E 016°13'0 0.0
2016-Sep-12 03:33N 58°36' E 016°13'0 0.0
2016-Sep-12 01:33N 58°36' E 016°13'0 0.0
2016-Sep-11 23:33N 58°36' E 016°13'0 0.0
2016-Sep-11 22:33N 58°36' E 016°13'0 0.0
2016-Sep-11 21:32N 58°36' E 016°13'0 0.0
2016-Sep-11 20:32N 58°36' E 016°13'0 0.0
2016-Sep-11 19:32N 58°36' E 016°13'0 0.0
2016-Sep-11 18:32N 58°36' E 016°13'0 0.0
2016-Sep-11 17:32N 58°36' E 016°13'0 0.0
2016-Sep-11 16:32N 58°36' E 016°13'0 0.0
2016-Sep-11 15:32N 58°36' E 016°13'0 0.0
2016-Sep-11 14:32N 58°36' E 016°13'0 0.1
2016-Sep-11 13:34N 58°36' E 016°13'5 5.4
2016-Sep-11 12:34N 58°39' E 016°22'9 8.6
2016-Sep-11 11:34N 58°38' E 016°38'9 9.0
2016-Sep-11 10:33N 58°36' E 016°55'  

Dump ship's entire track history